sensor_id;sensor_type;location;lat;lon;timestamp;P1;durP1;ratioP1;P2;durP2;ratioP2
66179;SDS011;52986;44.028;20.466;2023-07-20T00:01:13;10.40;;;2.50;;
66179;SDS011;52986;44.028;20.466;2023-07-20T00:03:39;11.50;;;2.30;;
66179;SDS011;52986;44.028;20.466;2023-07-20T00:06:04;10.32;;;2.38;;
66179;SDS011;52986;44.028;20.466;2023-07-20T00:08:30;9.70;;;2.40;;
66179;SDS011;52986;44.028;20.466;2023-07-20T00:10:55;10.10;;;2.22;;
66179;SDS011;52986;44.028;20.466;2023-07-20T00:13:21;11.10;;;2.85;;
66179;SDS011;52986;44.028;20.466;2023-07-20T00:15:46;7.85;;;2.20;;
66179;SDS011;52986;44.028;20.466;2023-07-20T00:18:12;8.00;;;2.00;;
66179;SDS011;52986;44.028;20.466;2023-07-20T00:20:38;9.40;;;2.40;;
66179;SDS011;52986;44.028;20.466;2023-07-20T00:23:04;9.10;;;2.50;;
66179;SDS011;52986;44.028;20.466;2023-07-20T00:25:29;13.48;;;2.53;;
66179;SDS011;52986;44.028;20.466;2023-07-20T00:27:55;10.80;;;2.30;;
66179;SDS011;52986;44.028;20.466;2023-07-20T00:30:20;8.80;;;2.30;;
66179;SDS011;52986;44.028;20.466;2023-07-20T00:32:46;7.93;;;2.05;;
66179;SDS011;52986;44.028;20.466;2023-07-20T00:35:11;9.68;;;2.70;;
66179;SDS011;52986;44.028;20.466;2023-07-20T00:37:37;8.80;;;2.58;;
66179;SDS011;52986;44.028;20.466;2023-07-20T00:40:04;9.80;;;2.47;;
66179;SDS011;52986;44.028;20.466;2023-07-20T00:42:30;9.90;;;2.42;;
66179;SDS011;52986;44.028;20.466;2023-07-20T00:44:55;8.80;;;2.45;;
66179;SDS011;52986;44.028;20.466;2023-07-20T00:47:21;9.88;;;2.40;;
66179;SDS011;52986;44.028;20.466;2023-07-20T00:49:46;9.77;;;2.20;;
66179;SDS011;52986;44.028;20.466;2023-07-20T00:52:13;8.35;;;2.33;;
66179;SDS011;52986;44.028;20.466;2023-07-20T00:54:39;9.98;;;2.35;;
66179;SDS011;52986;44.028;20.466;2023-07-20T00:57:06;10.02;;;2.35;;
66179;SDS011;52986;44.028;20.466;2023-07-20T00:59:32;10.48;;;2.40;;
66179;SDS011;52986;44.028;20.466;2023-07-20T01:01:59;11.35;;;2.40;;
66179;SDS011;52986;44.028;20.466;2023-07-20T01:04:24;9.90;;;2.50;;
66179;SDS011;52986;44.028;20.466;2023-07-20T01:07:03;12.35;;;2.30;;
66179;SDS011;52986;44.028;20.466;2023-07-20T01:12:13;10.80;;;2.30;;
66179;SDS011;52986;44.028;20.466;2023-07-20T01:14:42;9.50;;;2.47;;
66179;SDS011;52986;44.028;20.466;2023-07-20T01:17:08;7.38;;;2.50;;
66179;SDS011;52986;44.028;20.466;2023-07-20T01:19:33;10.32;;;2.20;;
66179;SDS011;52986;44.028;20.466;2023-07-20T01:22:02;11.88;;;2.70;;
66179;SDS011;52986;44.028;20.466;2023-07-20T01:24:44;9.73;;;2.20;;
66179;SDS011;52986;44.028;20.466;2023-07-20T01:27:26;7.55;;;2.00;;
66179;SDS011;52986;44.028;20.466;2023-07-20T01:32:26;12.25;;;2.50;;
66179;SDS011;52986;44.028;20.466;2023-07-20T01:34:53;9.18;;;2.42;;
66179;SDS011;52986;44.028;20.466;2023-07-20T01:37:20;11.50;;;2.40;;
66179;SDS011;52986;44.028;20.466;2023-07-20T01:39:50;10.48;;;2.45;;
66179;SDS011;52986;44.028;20.466;2023-07-20T01:42:20;10.70;;;2.45;;
66179;SDS011;52986;44.028;20.466;2023-07-20T01:44:46;8.82;;;2.28;;
66179;SDS011;52986;44.028;20.466;2023-07-20T01:47:11;11.70;;;2.50;;
66179;SDS011;52986;44.028;20.466;2023-07-20T01:49:37;12.88;;;2.92;;
66179;SDS011;52986;44.028;20.466;2023-07-20T01:52:02;12.00;;;2.80;;
66179;SDS011;52986;44.028;20.466;2023-07-20T01:54:28;9.35;;;2.38;;
66179;SDS011;52986;44.028;20.466;2023-07-20T01:56:53;7.35;;;2.50;;
66179;SDS011;52986;44.028;20.466;2023-07-20T01:59:19;9.90;;;2.40;;
66179;SDS011;52986;44.028;20.466;2023-07-20T02:01:44;8.50;;;2.37;;
66179;SDS011;52986;44.028;20.466;2023-07-20T02:04:09;7.93;;;2.20;;
66179;SDS011;52986;44.028;20.466;2023-07-20T02:06:35;6.97;;;2.33;;
66179;SDS011;52986;44.028;20.466;2023-07-20T02:09:00;10.38;;;2.28;;
66179;SDS011;52986;44.028;20.466;2023-07-20T02:11:25;11.13;;;2.30;;
66179;SDS011;52986;44.028;20.466;2023-07-20T02:13:51;9.48;;;2.40;;
66179;SDS011;52986;44.028;20.466;2023-07-20T02:16:16;10.85;;;2.28;;
66179;SDS011;52986;44.028;20.466;2023-07-20T02:18:42;8.80;;;2.97;;
66179;SDS011;52986;44.028;20.466;2023-07-20T02:21:07;9.57;;;2.40;;
66179;SDS011;52986;44.028;20.466;2023-07-20T02:23:32;9.90;;;2.20;;
66179;SDS011;52986;44.028;20.466;2023-07-20T02:25:58;7.78;;;2.30;;
66179;SDS011;52986;44.028;20.466;2023-07-20T02:28:23;15.33;;;2.60;;
66179;SDS011;52986;44.028;20.466;2023-07-20T02:30:48;11.23;;;2.53;;
66179;SDS011;52986;44.028;20.466;2023-07-20T02:33:15;9.38;;;2.30;;
66179;SDS011;52986;44.028;20.466;2023-07-20T02:35:40;9.82;;;2.50;;
66179;SDS011;52986;44.028;20.466;2023-07-20T02:38:05;10.82;;;2.85;;
66179;SDS011;52986;44.028;20.466;2023-07-20T02:40:32;10.48;;;2.50;;
66179;SDS011;52986;44.028;20.466;2023-07-20T02:42:57;8.23;;;2.75;;
66179;SDS011;52986;44.028;20.466;2023-07-20T02:45:22;12.63;;;2.70;;
66179;SDS011;52986;44.028;20.466;2023-07-20T02:47:48;10.82;;;2.80;;
66179;SDS011;52986;44.028;20.466;2023-07-20T02:50:14;10.88;;;2.72;;
66179;SDS011;52986;44.028;20.466;2023-07-20T02:52:39;9.60;;;2.60;;
66179;SDS011;52986;44.028;20.466;2023-07-20T02:55:05;10.65;;;2.78;;
66179;SDS011;52986;44.028;20.466;2023-07-20T02:57:30;10.95;;;2.70;;
66179;SDS011;52986;44.028;20.466;2023-07-20T02:59:56;8.82;;;2.83;;
66179;SDS011;52986;44.028;20.466;2023-07-20T03:02:21;7.40;;;2.72;;
66179;SDS011;52986;44.028;20.466;2023-07-20T03:04:46;7.50;;;2.33;;
66179;SDS011;52986;44.028;20.466;2023-07-20T03:07:12;11.13;;;2.80;;
66179;SDS011;52986;44.028;20.466;2023-07-20T03:09:37;10.57;;;2.80;;
66179;SDS011;52986;44.028;20.466;2023-07-20T03:12:03;9.40;;;2.90;;
66179;SDS011;52986;44.028;20.466;2023-07-20T03:14:29;10.32;;;2.78;;
66179;SDS011;52986;44.028;20.466;2023-07-20T03:16:55;12.98;;;2.92;;
66179;SDS011;52986;44.028;20.466;2023-07-20T03:19:20;11.48;;;2.65;;
66179;SDS011;52986;44.028;20.466;2023-07-20T03:21:46;11.45;;;2.80;;
66179;SDS011;52986;44.028;20.466;2023-07-20T03:24:11;9.70;;;2.47;;
66179;SDS011;52986;44.028;20.466;2023-07-20T03:26:36;11.17;;;2.70;;
66179;SDS011;52986;44.028;20.466;2023-07-20T03:29:02;11.15;;;2.63;;
66179;SDS011;52986;44.028;20.466;2023-07-20T03:31:28;13.15;;;3.45;;
66179;SDS011;52986;44.028;20.466;2023-07-20T03:33:54;11.15;;;2.60;;
66179;SDS011;52986;44.028;20.466;2023-07-20T03:36:19;10.93;;;2.80;;
66179;SDS011;52986;44.028;20.466;2023-07-20T03:38:45;9.65;;;3.17;;
66179;SDS011;52986;44.028;20.466;2023-07-20T03:41:10;9.70;;;3.10;;
66179;SDS011;52986;44.028;20.466;2023-07-20T03:43:36;15.02;;;3.13;;
66179;SDS011;52986;44.028;20.466;2023-07-20T03:46:02;13.30;;;3.22;;
66179;SDS011;52986;44.028;20.466;2023-07-20T03:48:31;15.27;;;3.40;;
66179;SDS011;52986;44.028;20.466;2023-07-20T03:50:58;11.50;;;3.20;;
66179;SDS011;52986;44.028;20.466;2023-07-20T03:53:23;11.68;;;3.17;;
66179;SDS011;52986;44.028;20.466;2023-07-20T03:55:49;12.63;;;3.20;;
66179;SDS011;52986;44.028;20.466;2023-07-20T03:58:16;15.52;;;3.30;;
66179;SDS011;52986;44.028;20.466;2023-07-20T04:00:48;12.10;;;3.10;;
66179;SDS011;52986;44.028;20.466;2023-07-20T04:03:15;10.15;;;3.00;;
66179;SDS011;52986;44.028;20.466;2023-07-20T04:05:42;10.93;;;3.00;;
66179;SDS011;52986;44.028;20.466;2023-07-20T04:08:08;13.90;;;3.45;;
66179;SDS011;52986;44.028;20.466;2023-07-20T04:10:33;14.88;;;3.42;;
66179;SDS011;52986;44.028;20.466;2023-07-20T04:13:00;13.02;;;3.28;;
66179;SDS011;52986;44.028;20.466;2023-07-20T04:15:25;15.00;;;3.58;;
66179;SDS011;52986;44.028;20.466;2023-07-20T04:17:51;14.02;;;3.72;;
66179;SDS011;52986;44.028;20.466;2023-07-20T04:20:16;12.77;;;3.70;;
66179;SDS011;52986;44.028;20.466;2023-07-20T04:22:43;11.20;;;3.85;;
66179;SDS011;52986;44.028;20.466;2023-07-20T04:25:08;14.60;;;4.65;;
66179;SDS011;52986;44.028;20.466;2023-07-20T04:27:35;12.65;;;3.85;;
66179;SDS011;52986;44.028;20.466;2023-07-20T04:30:01;13.68;;;4.00;;
66179;SDS011;52986;44.028;20.466;2023-07-20T04:32:26;14.07;;;4.20;;
66179;SDS011;52986;44.028;20.466;2023-07-20T04:34:52;13.40;;;3.70;;
66179;SDS011;52986;44.028;20.466;2023-07-20T04:37:17;14.85;;;4.10;;
66179;SDS011;52986;44.028;20.466;2023-07-20T04:39:43;13.43;;;4.53;;
66179;SDS011;52986;44.028;20.466;2023-07-20T04:42:08;12.33;;;3.73;;
66179;SDS011;52986;44.028;20.466;2023-07-20T04:44:34;12.02;;;4.00;;
66179;SDS011;52986;44.028;20.466;2023-07-20T04:46:59;13.13;;;3.60;;
66179;SDS011;52986;44.028;20.466;2023-07-20T04:49:24;11.30;;;3.73;;
66179;SDS011;52986;44.028;20.466;2023-07-20T04:51:50;13.10;;;4.10;;
66179;SDS011;52986;44.028;20.466;2023-07-20T04:54:16;12.25;;;4.07;;
66179;SDS011;52986;44.028;20.466;2023-07-20T04:56:42;15.20;;;4.32;;
66179;SDS011;52986;44.028;20.466;2023-07-20T04:59:07;12.95;;;4.20;;
66179;SDS011;52986;44.028;20.466;2023-07-20T05:01:33;10.85;;;4.07;;
66179;SDS011;52986;44.028;20.466;2023-07-20T05:03:59;13.60;;;4.32;;
66179;SDS011;52986;44.028;20.466;2023-07-20T05:06:24;12.95;;;4.00;;
66179;SDS011;52986;44.028;20.466;2023-07-20T05:08:49;14.38;;;4.32;;
66179;SDS011;52986;44.028;20.466;2023-07-20T05:11:15;10.50;;;3.90;;
66179;SDS011;52986;44.028;20.466;2023-07-20T05:13:40;12.02;;;4.10;;
66179;SDS011;52986;44.028;20.466;2023-07-20T05:16:06;12.65;;;4.38;;
66179;SDS011;52986;44.028;20.466;2023-07-20T05:18:31;15.15;;;4.65;;
66179;SDS011;52986;44.028;20.466;2023-07-20T05:20:57;13.02;;;5.40;;
66179;SDS011;52986;44.028;20.466;2023-07-20T05:23:22;12.75;;;4.75;;
66179;SDS011;52986;44.028;20.466;2023-07-20T05:25:53;12.23;;;4.80;;
66179;SDS011;52986;44.028;20.466;2023-07-20T05:28:23;15.35;;;5.30;;
66179;SDS011;52986;44.028;20.466;2023-07-20T05:30:49;17.73;;;5.82;;
66179;SDS011;52986;44.028;20.466;2023-07-20T05:33:16;14.32;;;5.85;;
66179;SDS011;52986;44.028;20.466;2023-07-20T05:35:42;14.15;;;5.28;;
66179;SDS011;52986;44.028;20.466;2023-07-20T05:38:08;12.27;;;4.70;;
66179;SDS011;52986;44.028;20.466;2023-07-20T05:40:35;13.35;;;5.05;;
66179;SDS011;52986;44.028;20.466;2023-07-20T05:43:02;12.20;;;4.85;;
66179;SDS011;52986;44.028;20.466;2023-07-20T05:45:28;12.73;;;4.55;;
66179;SDS011;52986;44.028;20.466;2023-07-20T05:47:53;11.73;;;5.03;;
66179;SDS011;52986;44.028;20.466;2023-07-20T05:50:19;12.18;;;5.00;;
66179;SDS011;52986;44.028;20.466;2023-07-20T05:52:44;13.57;;;4.65;;
66179;SDS011;52986;44.028;20.466;2023-07-20T05:55:09;12.38;;;4.82;;
66179;SDS011;52986;44.028;20.466;2023-07-20T05:57:35;12.52;;;4.40;;
66179;SDS011;52986;44.028;20.466;2023-07-20T06:00:01;11.60;;;4.97;;
66179;SDS011;52986;44.028;20.466;2023-07-20T06:02:28;11.32;;;4.45;;
66179;SDS011;52986;44.028;20.466;2023-07-20T06:04:53;11.48;;;4.68;;
66179;SDS011;52986;44.028;20.466;2023-07-20T06:07:19;11.52;;;4.82;;
66179;SDS011;52986;44.028;20.466;2023-07-20T06:09:45;14.00;;;6.45;;
66179;SDS011;52986;44.028;20.466;2023-07-20T06:12:10;14.85;;;6.55;;
66179;SDS011;52986;44.028;20.466;2023-07-20T06:14:35;14.05;;;6.13;;
66179;SDS011;52986;44.028;20.466;2023-07-20T06:17:01;14.48;;;6.45;;
66179;SDS011;52986;44.028;20.466;2023-07-20T06:19:26;13.90;;;7.20;;
66179;SDS011;52986;44.028;20.466;2023-07-20T06:21:52;13.93;;;7.22;;
66179;SDS011;52986;44.028;20.466;2023-07-20T06:24:17;13.15;;;6.80;;
66179;SDS011;52986;44.028;20.466;2023-07-20T06:26:43;17.55;;;7.95;;
66179;SDS011;52986;44.028;20.466;2023-07-20T06:29:09;16.33;;;8.43;;
66179;SDS011;52986;44.028;20.466;2023-07-20T06:31:34;15.93;;;7.75;;
66179;SDS011;52986;44.028;20.466;2023-07-20T06:34:00;16.17;;;7.50;;
66179;SDS011;52986;44.028;20.466;2023-07-20T06:36:26;15.15;;;7.55;;
66179;SDS011;52986;44.028;20.466;2023-07-20T06:38:52;14.02;;;7.78;;
66179;SDS011;52986;44.028;20.466;2023-07-20T06:41:18;14.55;;;7.32;;
66179;SDS011;52986;44.028;20.466;2023-07-20T06:43:44;13.48;;;7.00;;
66179;SDS011;52986;44.028;20.466;2023-07-20T06:46:09;15.93;;;7.05;;
66179;SDS011;52986;44.028;20.466;2023-07-20T06:48:35;14.27;;;6.40;;
66179;SDS011;52986;44.028;20.466;2023-07-20T06:51:00;13.38;;;6.38;;
66179;SDS011;52986;44.028;20.466;2023-07-20T06:53:25;13.32;;;6.13;;
66179;SDS011;52986;44.028;20.466;2023-07-20T06:55:51;11.35;;;5.80;;
66179;SDS011;52986;44.028;20.466;2023-07-20T06:58:16;12.77;;;5.65;;
66179;SDS011;52986;44.028;20.466;2023-07-20T07:00:42;11.73;;;4.90;;
66179;SDS011;52986;44.028;20.466;2023-07-20T07:03:08;10.93;;;5.10;;
66179;SDS011;52986;44.028;20.466;2023-07-20T07:05:37;12.52;;;5.40;;
66179;SDS011;52986;44.028;20.466;2023-07-20T07:08:03;10.40;;;5.00;;
66179;SDS011;52986;44.028;20.466;2023-07-20T07:10:31;10.85;;;5.07;;
66179;SDS011;52986;44.028;20.466;2023-07-20T07:12:58;10.95;;;4.80;;
66179;SDS011;52986;44.028;20.466;2023-07-20T07:15:23;10.57;;;5.18;;
66179;SDS011;52986;44.028;20.466;2023-07-20T07:17:49;11.80;;;5.07;;
66179;SDS011;52986;44.028;20.466;2023-07-20T07:20:14;10.05;;;4.30;;
66179;SDS011;52986;44.028;20.466;2023-07-20T07:22:40;12.32;;;4.65;;
66179;SDS011;52986;44.028;20.466;2023-07-20T07:25:09;10.98;;;4.82;;
66179;SDS011;52986;44.028;20.466;2023-07-20T07:27:34;9.32;;;4.20;;
66179;SDS011;52986;44.028;20.466;2023-07-20T07:30:00;8.98;;;4.25;;
66179;SDS011;52986;44.028;20.466;2023-07-20T07:32:26;9.55;;;4.38;;
66179;SDS011;52986;44.028;20.466;2023-07-20T07:34:51;9.05;;;4.30;;
66179;SDS011;52986;44.028;20.466;2023-07-20T07:37:17;10.25;;;4.38;;
66179;SDS011;52986;44.028;20.466;2023-07-20T07:39:44;10.00;;;4.25;;
66179;SDS011;52986;44.028;20.466;2023-07-20T07:42:10;10.70;;;4.70;;
66179;SDS011;52986;44.028;20.466;2023-07-20T07:44:35;10.45;;;4.50;;
66179;SDS011;52986;44.028;20.466;2023-07-20T07:47:00;10.50;;;4.65;;
66179;SDS011;52986;44.028;20.466;2023-07-20T07:49:26;11.00;;;4.38;;
66179;SDS011;52986;44.028;20.466;2023-07-20T07:51:52;13.90;;;4.45;;
66179;SDS011;52986;44.028;20.466;2023-07-20T07:54:18;11.27;;;4.07;;
66179;SDS011;52986;44.028;20.466;2023-07-20T07:56:43;9.68;;;4.30;;
66179;SDS011;52986;44.028;20.466;2023-07-20T07:59:09;8.73;;;3.83;;
66179;SDS011;52986;44.028;20.466;2023-07-20T08:01:35;9.10;;;3.78;;
66179;SDS011;52986;44.028;20.466;2023-07-20T08:04:00;11.00;;;4.55;;
66179;SDS011;52986;44.028;20.466;2023-07-20T08:06:25;9.93;;;4.22;;
66179;SDS011;52986;44.028;20.466;2023-07-20T08:08:51;10.00;;;4.50;;
66179;SDS011;52986;44.028;20.466;2023-07-20T08:11:16;12.20;;;4.50;;
66179;SDS011;52986;44.028;20.466;2023-07-20T08:13:43;10.13;;;3.53;;
66179;SDS011;52986;44.028;20.466;2023-07-20T08:16:08;10.20;;;3.47;;
66179;SDS011;52986;44.028;20.466;2023-07-20T08:18:34;10.00;;;3.33;;
66179;SDS011;52986;44.028;20.466;2023-07-20T08:20:59;7.63;;;3.40;;
66179;SDS011;52986;44.028;20.466;2023-07-20T08:23:25;10.63;;;4.03;;
66179;SDS011;52986;44.028;20.466;2023-07-20T08:25:52;10.77;;;3.72;;
66179;SDS011;52986;44.028;20.466;2023-07-20T08:28:18;11.52;;;3.53;;
66179;SDS011;52986;44.028;20.466;2023-07-20T08:30:44;11.77;;;3.85;;
66179;SDS011;52986;44.028;20.466;2023-07-20T08:33:12;10.50;;;3.58;;
66179;SDS011;52986;44.028;20.466;2023-07-20T08:35:39;14.73;;;3.95;;
66179;SDS011;52986;44.028;20.466;2023-07-20T08:38:04;9.45;;;4.10;;
66179;SDS011;52986;44.028;20.466;2023-07-20T08:40:31;10.23;;;4.13;;
66179;SDS011;52986;44.028;20.466;2023-07-20T08:42:58;9.20;;;4.15;;
66179;SDS011;52986;44.028;20.466;2023-07-20T08:45:25;10.13;;;4.05;;
66179;SDS011;52986;44.028;20.466;2023-07-20T08:47:54;9.20;;;3.88;;
66179;SDS011;52986;44.028;20.466;2023-07-20T08:50:21;9.05;;;3.83;;
66179;SDS011;52986;44.028;20.466;2023-07-20T08:52:47;8.20;;;3.72;;
66179;SDS011;52986;44.028;20.466;2023-07-20T08:55:13;10.13;;;4.03;;
66179;SDS011;52986;44.028;20.466;2023-07-20T08:57:38;8.63;;;3.63;;
66179;SDS011;52986;44.028;20.466;2023-07-20T09:00:06;7.85;;;3.38;;
66179;SDS011;52986;44.028;20.466;2023-07-20T09:02:38;8.35;;;3.78;;
66179;SDS011;52986;44.028;20.466;2023-07-20T09:05:07;9.48;;;4.10;;
66179;SDS011;52986;44.028;20.466;2023-07-20T09:07:35;9.15;;;3.70;;
66179;SDS011;52986;44.028;20.466;2023-07-20T09:10:01;9.70;;;4.13;;
66179;SDS011;52986;44.028;20.466;2023-07-20T09:12:31;9.35;;;3.70;;
66179;SDS011;52986;44.028;20.466;2023-07-20T09:15:00;9.52;;;4.72;;
66179;SDS011;52986;44.028;20.466;2023-07-20T09:17:26;8.80;;;3.50;;
66179;SDS011;52986;44.028;20.466;2023-07-20T09:19:51;11.00;;;3.63;;
66179;SDS011;52986;44.028;20.466;2023-07-20T09:22:17;9.45;;;3.50;;
66179;SDS011;52986;44.028;20.466;2023-07-20T09:24:43;8.43;;;3.20;;
66179;SDS011;52986;44.028;20.466;2023-07-20T09:27:09;9.27;;;3.40;;
66179;SDS011;52986;44.028;20.466;2023-07-20T09:29:50;8.10;;;3.50;;
66179;SDS011;52986;44.028;20.466;2023-07-20T09:32:19;8.48;;;3.28;;
66179;SDS011;52986;44.028;20.466;2023-07-20T09:37:11;7.10;;;3.20;;
66179;SDS011;52986;44.028;20.466;2023-07-20T09:39:44;10.30;;;3.40;;
66179;SDS011;52986;44.028;20.466;2023-07-20T09:42:11;7.78;;;3.67;;
66179;SDS011;52986;44.028;20.466;2023-07-20T09:44:38;8.30;;;3.38;;
66179;SDS011;52986;44.028;20.466;2023-07-20T09:47:03;8.05;;;2.90;;
66179;SDS011;52986;44.028;20.466;2023-07-20T09:49:29;7.50;;;3.00;;
66179;SDS011;52986;44.028;20.466;2023-07-20T09:51:54;7.83;;;2.90;;
66179;SDS011;52986;44.028;20.466;2023-07-20T09:54:22;7.78;;;2.88;;
66179;SDS011;52986;44.028;20.466;2023-07-20T09:56:48;7.80;;;2.92;;
66179;SDS011;52986;44.028;20.466;2023-07-20T09:59:14;7.80;;;2.70;;
66179;SDS011;52986;44.028;20.466;2023-07-20T10:01:40;8.50;;;3.10;;
66179;SDS011;52986;44.028;20.466;2023-07-20T10:04:08;6.95;;;2.75;;
66179;SDS011;52986;44.028;20.466;2023-07-20T10:06:34;7.65;;;2.85;;
66179;SDS011;52986;44.028;20.466;2023-07-20T10:09:04;7.75;;;2.70;;
66179;SDS011;52986;44.028;20.466;2023-07-20T10:11:33;6.55;;;2.97;;
66179;SDS011;52986;44.028;20.466;2023-07-20T10:14:01;7.70;;;2.85;;
66179;SDS011;52986;44.028;20.466;2023-07-20T10:16:32;6.22;;;2.40;;
66179;SDS011;52986;44.028;20.466;2023-07-20T10:21:51;6.05;;;2.63;;
66179;SDS011;52986;44.028;20.466;2023-07-20T10:24:22;8.43;;;3.10;;
66179;SDS011;52986;44.028;20.466;2023-07-20T10:26:49;8.23;;;2.63;;
66179;SDS011;52986;44.028;20.466;2023-07-20T10:29:15;8.75;;;3.20;;
66179;SDS011;52986;44.028;20.466;2023-07-20T10:31:41;8.63;;;3.00;;
66179;SDS011;52986;44.028;20.466;2023-07-20T10:34:07;8.52;;;2.90;;
66179;SDS011;52986;44.028;20.466;2023-07-20T10:36:33;8.10;;;3.10;;
66179;SDS011;52986;44.028;20.466;2023-07-20T10:39:21;8.30;;;3.30;;
66179;SDS011;52986;44.028;20.466;2023-07-20T10:41:59;9.13;;;3.20;;
66179;SDS011;52986;44.028;20.466;2023-07-20T10:44:37;8.23;;;3.15;;
66179;SDS011;52986;44.028;20.466;2023-07-20T10:47:03;8.23;;;3.03;;
66179;SDS011;52986;44.028;20.466;2023-07-20T10:49:34;8.68;;;3.28;;
66179;SDS011;52986;44.028;20.466;2023-07-20T10:52:04;7.60;;;3.10;;
66179;SDS011;52986;44.028;20.466;2023-07-20T10:57:21;9.23;;;3.13;;
66179;SDS011;52986;44.028;20.466;2023-07-20T11:00:09;8.23;;;3.30;;
66179;SDS011;52986;44.028;20.466;2023-07-20T11:02:58;8.20;;;3.30;;
66179;SDS011;52986;44.028;20.466;2023-07-20T11:05:39;9.73;;;3.83;;
66179;SDS011;52986;44.028;20.466;2023-07-20T11:08:16;8.43;;;2.95;;
66179;SDS011;52986;44.028;20.466;2023-07-20T11:11:20;7.10;;;3.00;;
66179;SDS011;52986;44.028;20.466;2023-07-20T11:14:03;8.35;;;3.35;;
66179;SDS011;52986;44.028;20.466;2023-07-20T11:16:46;8.20;;;2.88;;
66179;SDS011;52986;44.028;20.466;2023-07-20T11:19:16;7.75;;;2.35;;
66179;SDS011;52986;44.028;20.466;2023-07-20T11:21:43;6.28;;;2.40;;
66179;SDS011;52986;44.028;20.466;2023-07-20T11:24:09;5.95;;;2.60;;
66179;SDS011;52986;44.028;20.466;2023-07-20T11:26:54;5.30;;;2.30;;
66179;SDS011;52986;44.028;20.466;2023-07-20T11:29:20;7.80;;;2.60;;
66179;SDS011;52986;44.028;20.466;2023-07-20T11:31:48;9.93;;;3.00;;
66179;SDS011;52986;44.028;20.466;2023-07-20T11:34:14;9.00;;;2.70;;
66179;SDS011;52986;44.028;20.466;2023-07-20T11:36:42;7.25;;;2.70;;
66179;SDS011;52986;44.028;20.466;2023-07-20T11:39:13;5.72;;;2.47;;
66179;SDS011;52986;44.028;20.466;2023-07-20T11:41:43;6.78;;;2.60;;
66179;SDS011;52986;44.028;20.466;2023-07-20T11:44:11;9.85;;;2.92;;
66179;SDS011;52986;44.028;20.466;2023-07-20T11:46:40;6.95;;;2.50;;
66179;SDS011;52986;44.028;20.466;2023-07-20T11:49:07;6.72;;;2.90;;
66179;SDS011;52986;44.028;20.466;2023-07-20T11:51:33;7.32;;;2.45;;
66179;SDS011;52986;44.028;20.466;2023-07-20T11:54:00;7.13;;;2.45;;
66179;SDS011;52986;44.028;20.466;2023-07-20T11:56:27;7.80;;;2.33;;
66179;SDS011;52986;44.028;20.466;2023-07-20T11:58:59;7.18;;;2.60;;
66179;SDS011;52986;44.028;20.466;2023-07-20T12:01:27;7.07;;;2.55;;
66179;SDS011;52986;44.028;20.466;2023-07-20T12:04:00;6.57;;;2.35;;
66179;SDS011;52986;44.028;20.466;2023-07-20T12:06:28;6.32;;;2.45;;
66179;SDS011;52986;44.028;20.466;2023-07-20T12:08:55;6.95;;;2.78;;
66179;SDS011;52986;44.028;20.466;2023-07-20T12:11:34;9.63;;;2.95;;
66179;SDS011;52986;44.028;20.466;2023-07-20T12:14:01;4.78;;;2.58;;
66179;SDS011;52986;44.028;20.466;2023-07-20T12:16:28;6.72;;;2.65;;
66179;SDS011;52986;44.028;20.466;2023-07-20T12:21:36;9.07;;;3.75;;
66179;SDS011;52986;44.028;20.466;2023-07-20T12:26:29;7.32;;;2.70;;
66179;SDS011;52986;44.028;20.466;2023-07-20T12:28:56;8.65;;;2.80;;
66179;SDS011;52986;44.028;20.466;2023-07-20T12:31:22;8.77;;;2.63;;
66179;SDS011;52986;44.028;20.466;2023-07-20T12:33:49;8.35;;;2.80;;
66179;SDS011;52986;44.028;20.466;2023-07-20T12:36:16;8.02;;;2.60;;
66179;SDS011;52986;44.028;20.466;2023-07-20T12:38:42;8.73;;;3.10;;
66179;SDS011;52986;44.028;20.466;2023-07-20T12:41:09;8.48;;;2.88;;
66179;SDS011;52986;44.028;20.466;2023-07-20T12:43:37;9.43;;;2.92;;
66179;SDS011;52986;44.028;20.466;2023-07-20T12:46:03;6.90;;;2.60;;
66179;SDS011;52986;44.028;20.466;2023-07-20T12:48:28;6.93;;;2.70;;
66179;SDS011;52986;44.028;20.466;2023-07-20T12:50:53;8.03;;;2.83;;
66179;SDS011;52986;44.028;20.466;2023-07-20T12:53:20;8.70;;;3.00;;
66179;SDS011;52986;44.028;20.466;2023-07-20T12:55:45;8.40;;;3.15;;
66179;SDS011;52986;44.028;20.466;2023-07-20T12:58:11;8.38;;;3.80;;
66179;SDS011;52986;44.028;20.466;2023-07-20T13:00:37;8.52;;;3.28;;
66179;SDS011;52986;44.028;20.466;2023-07-20T13:03:03;9.50;;;3.83;;
66179;SDS011;52986;44.028;20.466;2023-07-20T13:05:30;8.10;;;3.20;;
66179;SDS011;52986;44.028;20.466;2023-07-20T13:07:57;9.52;;;3.70;;
66179;SDS011;52986;44.028;20.466;2023-07-20T13:10:23;8.00;;;3.40;;
66179;SDS011;52986;44.028;20.466;2023-07-20T13:12:48;9.77;;;3.45;;
66179;SDS011;52986;44.028;20.466;2023-07-20T13:15:14;8.73;;;3.72;;
66179;SDS011;52986;44.028;20.466;2023-07-20T13:17:39;8.25;;;3.50;;
66179;SDS011;52986;44.028;20.466;2023-07-20T13:20:05;10.55;;;3.60;;
66179;SDS011;52986;44.028;20.466;2023-07-20T13:22:34;8.23;;;3.80;;
66179;SDS011;52986;44.028;20.466;2023-07-20T13:24:59;10.65;;;3.80;;
66179;SDS011;52986;44.028;20.466;2023-07-20T13:27:25;9.00;;;3.60;;
66179;SDS011;52986;44.028;20.466;2023-07-20T13:29:51;9.70;;;3.40;;
66179;SDS011;52986;44.028;20.466;2023-07-20T13:32:16;9.13;;;3.55;;
66179;SDS011;52986;44.028;20.466;2023-07-20T13:34:45;9.82;;;3.65;;
66179;SDS011;52986;44.028;20.466;2023-07-20T13:37:11;8.52;;;3.50;;
66179;SDS011;52986;44.028;20.466;2023-07-20T13:39:37;9.10;;;3.42;;
66179;SDS011;52986;44.028;20.466;2023-07-20T13:42:03;8.13;;;3.60;;
66179;SDS011;52986;44.028;20.466;2023-07-20T13:44:33;8.32;;;3.47;;
66179;SDS011;52986;44.028;20.466;2023-07-20T13:46:59;8.63;;;3.65;;
66179;SDS011;52986;44.028;20.466;2023-07-20T13:49:24;9.10;;;3.65;;
66179;SDS011;52986;44.028;20.466;2023-07-20T13:51:50;9.70;;;3.50;;
66179;SDS011;52986;44.028;20.466;2023-07-20T13:54:15;9.00;;;3.55;;
66179;SDS011;52986;44.028;20.466;2023-07-20T13:56:41;9.95;;;3.53;;
66179;SDS011;52986;44.028;20.466;2023-07-20T13:59:06;9.25;;;3.55;;
66179;SDS011;52986;44.028;20.466;2023-07-20T14:01:32;7.70;;;3.63;;
66179;SDS011;52986;44.028;20.466;2023-07-20T14:03:59;8.27;;;3.40;;
66179;SDS011;52986;44.028;20.466;2023-07-20T14:06:25;8.25;;;3.47;;
66179;SDS011;52986;44.028;20.466;2023-07-20T14:08:51;9.35;;;3.38;;
66179;SDS011;52986;44.028;20.466;2023-07-20T14:11:18;8.63;;;3.20;;
66179;SDS011;52986;44.028;20.466;2023-07-20T14:13:43;11.75;;;3.58;;
66179;SDS011;52986;44.028;20.466;2023-07-20T14:16:09;8.95;;;3.45;;
66179;SDS011;52986;44.028;20.466;2023-07-20T14:18:35;8.73;;;3.80;;
66179;SDS011;52986;44.028;20.466;2023-07-20T14:21:01;8.45;;;3.45;;
66179;SDS011;52986;44.028;20.466;2023-07-20T14:23:28;9.45;;;4.30;;
66179;SDS011;52986;44.028;20.466;2023-07-20T14:25:53;11.85;;;5.53;;
66179;SDS011;52986;44.028;20.466;2023-07-20T14:28:19;13.90;;;7.20;;
66179;SDS011;52986;44.028;20.466;2023-07-20T14:30:45;13.98;;;7.07;;
66179;SDS011;52986;44.028;20.466;2023-07-20T14:33:10;11.07;;;5.80;;
66179;SDS011;52986;44.028;20.466;2023-07-20T14:35:36;10.18;;;4.32;;
66179;SDS011;52986;44.028;20.466;2023-07-20T14:38:02;10.00;;;4.57;;
66179;SDS011;52986;44.028;20.466;2023-07-20T14:40:27;8.75;;;3.75;;
66179;SDS011;52986;44.028;20.466;2023-07-20T14:42:53;9.40;;;3.45;;
66179;SDS011;52986;44.028;20.466;2023-07-20T14:45:20;9.55;;;3.40;;